Time;durP1;ratioP1;P1;durP2;ratioP2;P2;SDS_P1;SDS_P2;PMS_P1;PMS_P2;Temp;Humidity;BMP_temperature;BMP_pressure;BME280_temperature;BME280_humidity;BME280_pressure;Samples;Min_cycle;Max_cycle;Signal;HPM_P1;HPM_P2
2023/12/27 00:00:30;;;;;;;1.35;1.20;;;;;;;;;;1032094;28;20054;-64
2023/12/27 00:01:20;;;;;;;2.55;1.13;;;;;;;;;;1031744;28;20136;-64
2023/12/27 00:01:54;;;;;;;5.95;1.55;;;;;;;;;;1031553;28;20050;-62
2023/12/27 00:02:24;;;;;;;1.90;1.13;;;;;;;;;;1030648;28;20049;-64
2023/12/27 00:02:56;;;;;;;3.75;1.25;;;;;;;;;;1033338;28;20057;-63
2023/12/27 00:03:26;;;;;;;5.15;1.65;;;;;;;;;;1033448;28;20095;-62
2023/12/27 00:03:57;;;;;;;2.28;1.20;;;;;;;;;;1032805;28;20049;-62
2023/12/27 00:04:27;;;;;;;1.65;1.20;;;;;;;;;;1032192;28;20607;-62
2023/12/27 00:04:58;;;;;;;6.85;1.52;;;;;;;;;;1033221;28;20054;-64
2023/12/27 00:05:28;;;;;;;2.28;1.42;;;;;;;;;;1033523;28;20100;-63
2023/12/27 00:05:59;;;;;;;1.77;1.17;;;;;;;;;;1032681;28;20073;-63
2023/12/27 00:06:29;;;;;;;1.73;1.08;;;;;;;;;;1032454;28;20681;-62
2023/12/27 00:07:00;;;;;;;2.53;1.20;;;;;;;;;;1031702;28;20053;-64
2023/12/27 00:07:30;;;;;;;2.08;1.00;;;;;;;;;;1033097;28;20046;-62
2023/12/27 00:08:01;;;;;;;1.98;1.38;;;;;;;;;;1032860;28;20038;-62
2023/12/27 00:08:32;;;;;;;0.95;0.93;;;;;;;;;;1032248;28;20608;-63
2023/12/27 00:09:02;;;;;;;1.58;1.00;;;;;;;;;;1032239;28;20042;-64
2023/12/27 00:09:33;;;;;;;1.33;1.00;;;;;;;;;;1031977;28;20054;-62
2023/12/27 00:10:04;;;;;;;0.85;0.80;;;;;;;;;;1034158;28;20429;-63
2023/12/27 00:10:34;;;;;;;3.63;1.20;;;;;;;;;;1032282;28;20049;-64
2023/12/27 00:11:05;;;;;;;2.08;1.10;;;;;;;;;;1032459;28;20566;-62
2023/12/27 00:11:36;;;;;;;1.85;1.13;;;;;;;;;;1032499;28;20053;-62
2023/12/27 00:12:06;;;;;;;2.45;1.33;;;;;;;;;;1032361;28;20050;-63
2023/12/27 00:12:37;;;;;;;0.90;0.90;;;;;;;;;;1033278;28;20045;-62
2023/12/27 00:13:07;;;;;;;3.38;1.20;;;;;;;;;;1033044;28;20927;-63
2023/12/27 00:13:38;;;;;;;2.75;1.40;;;;;;;;;;1033627;28;20145;-62
2023/12/27 00:14:08;;;;;;;1.40;1.15;;;;;;;;;;1033193;28;20792;-62
2023/12/27 00:14:39;;;;;;;1.63;1.15;;;;;;;;;;1031859;28;20049;-63
2023/12/27 00:15:10;;;;;;;1.40;1.27;;;;;;;;;;1032752;28;20840;-63
2023/12/27 00:15:45;;;;;;;6.03;1.60;;;;;;;;;;1032627;28;20406;-63
2023/12/27 00:16:15;;;;;;;2.08;1.17;;;;;;;;;;1033325;28;20132;-64
2023/12/27 00:16:46;;;;;;;1.80;0.95;;;;;;;;;;1032379;28;20092;-62
2023/12/27 00:17:16;;;;;;;1.35;1.13;;;;;;;;;;1033623;28;20056;-64
2023/12/27 00:17:46;;;;;;;2.50;1.30;;;;;;;;;;1030606;28;20049;-61
2023/12/27 00:18:17;;;;;;;1.85;1.40;;;;;;;;;;1037088;28;20053;-63
2023/12/27 00:18:48;;;;;;;1.40;1.25;;;;;;;;;;1036100;28;20060;-63
2023/12/27 00:19:19;;;;;;;3.35;1.20;;;;;;;;;;1037105;28;20056;-63
2023/12/27 00:19:49;;;;;;;2.33;1.30;;;;;;;;;;1034409;28;20049;-63
2023/12/27 00:20:20;;;;;;;2.10;1.58;;;;;;;;;;1032630;28;20104;-64
2023/12/27 00:20:50;;;;;;;2.42;1.20;;;;;;;;;;1032430;28;20061;-62
2023/12/27 00:21:21;;;;;;;3.75;1.20;;;;;;;;;;1032617;28;20053;-63
2023/12/27 00:21:51;;;;;;;3.40;1.67;;;;;;;;;;1032942;28;20781;-61
2023/12/27 00:22:23;;;;;;;2.28;1.40;;;;;;;;;;1033456;28;20116;-63
2023/12/27 00:22:53;;;;;;;3.88;1.30;;;;;;;;;;1033287;28;20399;-64
2023/12/27 00:23:26;;;;;;;3.92;2.05;;;;;;;;;;1032527;28;20439;-64
2023/12/27 00:23:56;;;;;;;5.75;1.30;;;;;;;;;;1032253;28;20482;-63
2023/12/27 00:24:27;;;;;;;2.58;1.38;;;;;;;;;;1033325;28;20493;-65
2023/12/27 00:24:57;;;;;;;2.80;1.23;;;;;;;;;;1033475;28;20073;-62
2023/12/27 00:25:28;;;;;;;1.40;1.10;;;;;;;;;;1032907;28;20050;-63
2023/12/27 00:25:58;;;;;;;3.10;1.52;;;;;;;;;;1032856;28;20050;-65
2023/12/27 00:26:29;;;;;;;3.83;1.35;;;;;;;;;;1033223;28;20049;-62
2023/12/27 00:26:59;;;;;;;1.48;1.38;;;;;;;;;;1031627;28;20518;-64
2023/12/27 00:27:30;;;;;;;1.75;1.05;;;;;;;;;;1033209;28;20046;-64
2023/12/27 00:28:00;;;;;;;1.75;1.23;;;;;;;;;;1032913;28;20414;-62
2023/12/27 00:28:31;;;;;;;2.00;1.23;;;;;;;;;;1033111;28;20037;-62
2023/12/27 00:29:02;;;;;;;1.10;1.08;;;;;;;;;;1032556;28;20038;-63
2023/12/27 00:29:33;;;;;;;1.83;1.40;;;;;;;;;;1033099;28;20486;-64
2023/12/27 00:30:04;;;;;;;1.77;1.20;;;;;;;;;;1032496;28;21606;-63
2023/12/27 00:30:35;;;;;;;3.95;1.23;;;;;;;;;;1032406;28;20076;-63
2023/12/27 00:31:05;;;;;;;1.98;1.00;;;;;;;;;;1033147;28;20048;-63
2023/12/27 00:31:36;;;;;;;2.53;1.27;;;;;;;;;;1033447;28;21034;-62
2023/12/27 00:32:08;;;;;;;2.17;1.50;;;;;;;;;;1034037;28;20475;-63
2023/12/27 00:32:39;;;;;;;2.85;1.17;;;;;;;;;;1032175;28;20136;-63
2023/12/27 00:33:09;;;;;;;1.33;1.23;;;;;;;;;;1031883;28;20053;-63
2023/12/27 00:33:40;;;;;;;2.72;1.00;;;;;;;;;;1031640;28;20046;-63
2023/12/27 00:34:10;;;;;;;1.50;1.00;;;;;;;;;;1034176;28;20077;-64
2023/12/27 00:34:41;;;;;;;1.13;1.13;;;;;;;;;;1032770;28;20422;-63
2023/12/27 00:35:11;;;;;;;3.58;1.38;;;;;;;;;;1033486;28;20046;-63
2023/12/27 00:35:42;;;;;;;1.88;1.38;;;;;;;;;;1033428;28;20042;-63
2023/12/27 00:36:13;;;;;;;3.88;1.45;;;;;;;;;;1032585;28;20049;-63
2023/12/27 00:36:43;;;;;;;1.27;1.17;;;;;;;;;;1032678;28;20637;-63
2023/12/27 00:37:15;;;;;;;3.85;1.30;;;;;;;;;;1033452;28;20505;-64
2023/12/27 00:37:45;;;;;;;2.20;1.25;;;;;;;;;;1033195;28;20054;-62
2023/12/27 00:38:16;;;;;;;2.70;1.40;;;;;;;;;;1032807;28;20052;-63
2023/12/27 00:38:47;;;;;;;1.55;1.08;;;;;;;;;;1033133;28;20799;-62
2023/12/27 00:39:23;;;;;;;1.15;1.10;;;;;;;;;;1033850;28;20046;-64
2023/12/27 00:39:54;;;;;;;1.27;1.17;;;;;;;;;;1034242;28;20099;-64
2023/12/27 00:40:24;;;;;;;2.22;1.20;;;;;;;;;;1033493;28;20080;-63
2023/12/27 00:40:55;;;;;;;4.63;1.30;;;;;;;;;;1033652;28;20049;-62
2023/12/27 00:41:25;;;;;;;1.88;1.20;;;;;;;;;;1033100;28;20056;-64
2023/12/27 00:41:56;;;;;;;4.97;1.48;;;;;;;;;;1033962;28;20136;-62
2023/12/27 00:42:26;;;;;;;1.60;1.27;;;;;;;;;;1033827;28;20528;-63
2023/12/27 00:42:57;;;;;;;1.45;1.13;;;;;;;;;;1034236;28;20145;-62
2023/12/27 00:43:27;;;;;;;1.10;1.10;;;;;;;;;;1033225;28;20056;-62
2023/12/27 00:43:58;;;;;;;1.25;1.15;;;;;;;;;;1034678;28;20045;-63
2023/12/27 00:44:28;;;;;;;3.20;1.30;;;;;;;;;;1033766;28;20694;-62
2023/12/27 00:44:59;;;;;;;1.23;1.10;;;;;;;;;;1034310;28;20050;-61
2023/12/27 00:45:29;;;;;;;3.90;1.58;;;;;;;;;;1034081;28;20115;-63
2023/12/27 00:46:00;;;;;;;1.25;1.15;;;;;;;;;;1034456;28;20048;-63
2023/12/27 00:46:31;;;;;;;2.42;1.30;;;;;;;;;;1033260;28;20111;-64
2023/12/27 00:47:01;;;;;;;3.10;1.20;;;;;;;;;;1034114;28;20439;-64
2023/12/27 00:47:32;;;;;;;1.10;0.95;;;;;;;;;;1033124;28;20489;-63
2023/12/27 00:48:02;;;;;;;4.20;1.20;;;;;;;;;;1031924;28;20779;-63
2023/12/27 00:48:33;;;;;;;4.57;1.20;;;;;;;;;;1033462;28;20046;-62
2023/12/27 00:49:03;;;;;;;2.13;1.38;;;;;;;;;;1033976;28;20050;-63
2023/12/27 00:49:34;;;;;;;3.13;1.20;;;;;;;;;;1034020;28;20149;-63
2023/12/27 00:50:05;;;;;;;2.63;1.33;;;;;;;;;;1034410;28;20053;-63
2023/12/27 00:50:35;;;;;;;2.22;1.10;;;;;;;;;;1033485;28;20403;-64
2023/12/27 00:51:16;;;;;;;1.73;1.02;;;;;;;;;;1034218;28;20100;-64
2023/12/27 00:51:46;;;;;;;3.20;1.92;;;;;;;;;;1033312;28;20046;-63
2023/12/27 00:52:17;;;;;;;4.65;1.65;;;;;;;;;;1033775;28;20082;-63
2023/12/27 00:52:47;;;;;;;1.27;1.10;;;;;;;;;;1033234;28;20128;-63
2023/12/27 00:53:18;;;;;;;1.98;1.40;;;;;;;;;;1033358;28;20050;-63
2023/12/27 00:53:49;;;;;;;1.33;1.20;;;;;;;;;;1033749;28;20107;-62
2023/12/27 00:54:20;;;;;;;2.40;1.20;;;;;;;;;;1034309;28;20038;-63
2023/12/27 00:54:50;;;;;;;1.75;1.52;;;;;;;;;;1033649;28;20053;-62
2023/12/27 00:55:21;;;;;;;3.55;1.40;;;;;;;;;;1034092;28;20054;-62
2023/12/27 00:55:51;;;;;;;1.42;1.30;;;;;;;;;;1033408;28;20049;-63
2023/12/27 00:56:22;;;;;;;4.85;1.58;;;;;;;;;;1034797;28;20049;-62
2023/12/27 00:56:52;;;;;;;2.95;1.20;;;;;;;;;;1033406;28;20050;-62
2023/12/27 00:57:23;;;;;;;1.73;1.30;;;;;;;;;;1034713;28;20054;-62
2023/12/27 00:57:53;;;;;;;3.30;1.10;;;;;;;;;;1032710;28;20054;-64
2023/12/27 00:58:24;;;;;;;1.27;1.15;;;;;;;;;;1033745;28;20148;-62
2023/12/27 00:58:54;;;;;;;1.30;1.10;;;;;;;;;;1034177;28;20061;-63
2023/12/27 00:59:25;;;;;;;2.03;1.02;;;;;;;;;;1034102;28;20042;-62
2023/12/27 00:59:55;;;;;;;2.10;1.50;;;;;;;;;;1033171;28;20777;-63
2023/12/27 01:00:26;;;;;;;1.83;1.27;;;;;;;;;;1033555;28;21993;-63
2023/12/27 01:00:56;;;;;;;5.07;1.40;;;;;;;;;;1033927;28;20054;-63
2023/12/27 01:01:29;;;;;;;1.60;1.05;;;;;;;;;;1033042;28;20465;-63
2023/12/27 01:02:01;;;;;;;4.40;1.40;;;;;;;;;;1033388;28;20050;-64
2023/12/27 01:02:34;;;;;;;6.00;1.55;;;;;;;;;;1031982;28;20091;-62
2023/12/27 01:03:05;;;;;;;1.95;1.25;;;;;;;;;;1033955;28;20100;-63
2023/12/27 01:03:35;;;;;;;4.85;1.63;;;;;;;;;;1033431;28;20049;-65
2023/12/27 01:04:06;;;;;;;1.88;1.20;;;;;;;;;;1033238;28;20093;-63
2023/12/27 01:04:36;;;;;;;5.30;1.70;;;;;;;;;;1033627;28;20053;-64
2023/12/27 01:05:07;;;;;;;3.38;1.50;;;;;;;;;;1033982;28;20064;-62
2023/12/27 01:05:38;;;;;;;1.98;1.40;;;;;;;;;;1032895;28;20074;-63
2023/12/27 01:06:09;;;;;;;2.45;1.35;;;;;;;;;;1032271;28;20054;-63
2023/12/27 01:06:40;;;;;;;3.38;1.08;;;;;;;;;;1032828;28;20058;-62
2023/12/27 01:07:11;;;;;;;1.15;1.08;;;;;;;;;;1033716;28;20053;-63
2023/12/27 01:07:41;;;;;;;2.05;1.40;;;;;;;;;;1033010;28;20080;-63
2023/12/27 01:08:11;;;;;;;2.92;1.05;;;;;;;;;;1031904;28;20045;-63
2023/12/27 01:08:42;;;;;;;1.40;1.30;;;;;;;;;;1033176;28;23413;-63
2023/12/27 01:09:12;;;;;;;1.35;1.20;;;;;;;;;;1033310;28;20050;-63
2023/12/27 01:09:43;;;;;;;3.30;1.27;;;;;;;;;;1032893;28;20050;-62
2023/12/27 01:10:16;;;;;;;0.90;0.90;;;;;;;;;;1034725;28;20054;-62
2023/12/27 01:10:47;;;;;;;4.85;1.30;;;;;;;;;;1033898;28;20056;-62
2023/12/27 01:11:18;;;;;;;1.65;1.33;;;;;;;;;;1033946;28;20056;-63
2023/12/27 01:11:48;;;;;;;2.35;1.10;;;;;;;;;;1033693;28;20046;-63
2023/12/27 01:12:19;;;;;;;1.50;1.15;;;;;;;;;;1032614;28;20073;-64
2023/12/27 01:12:50;;;;;;;1.23;1.13;;;;;;;;;;1033849;28;20065;-63
2023/12/27 01:13:20;;;;;;;1.75;1.00;;;;;;;;;;1034702;28;20474;-62
2023/12/27 01:13:51;;;;;;;5.18;1.67;;;;;;;;;;1032221;28;20053;-61
2023/12/27 01:14:21;;;;;;;1.23;1.05;;;;;;;;;;1034316;28;20042;-62
2023/12/27 01:14:52;;;;;;;1.00;0.95;;;;;;;;;;1033566;28;20486;-63
2023/12/27 01:15:22;;;;;;;2.25;1.27;;;;;;;;;;1034239;28;20053;-63
2023/12/27 01:15:53;;;;;;;1.05;0.95;;;;;;;;;;1033419;28;20053;-63
2023/12/27 01:16:24;;;;;;;1.80;1.20;;;;;;;;;;1032687;28;20046;-62
2023/12/27 01:16:54;;;;;;;0.98;0.98;;;;;;;;;;1033830;28;20077;-63
2023/12/27 01:17:25;;;;;;;1.92;1.30;;;;;;;;;;1033421;28;20050;-62
2023/12/27 01:17:55;;;;;;;1.38;1.27;;;;;;;;;;1033644;28;20058;-63
2023/12/27 01:18:26;;;;;;;1.88;1.00;;;;;;;;;;1031801;28;20049;-63
2023/12/27 01:18:57;;;;;;;1.33;1.10;;;;;;;;;;1034080;28;20184;-62
2023/12/27 01:19:27;;;;;;;2.38;0.93;;;;;;;;;;1033578;28;20054;-62
2023/12/27 01:19:58;;;;;;;3.17;1.13;;;;;;;;;;1034409;28;20064;-62
2023/12/27 01:20:28;;;;;;;2.28;1.00;;;;;;;;;;1032268;28;20069;-63
2023/12/27 01:20:59;;;;;;;2.75;1.13;;;;;;;;;;1033273;28;20644;-63
2023/12/27 01:21:29;;;;;;;3.58;1.17;;;;;;;;;;1033521;28;20125;-64
2023/12/27 01:22:00;;;;;;;1.02;0.90;;;;;;;;;;1034181;28;20045;-64
2023/12/27 01:22:30;;;;;;;2.50;1.00;;;;;;;;;;1033527;28;20052;-63
2023/12/27 01:23:02;;;;;;;3.17;1.80;;;;;;;;;;1034106;28;20096;-63
2023/12/27 01:23:32;;;;;;;2.10;1.10;;;;;;;;;;1033332;28;20058;-63
2023/12/27 01:24:03;;;;;;;0.88;0.85;;;;;;;;;;1034194;28;20049;-63
2023/12/27 01:24:34;;;;;;;2.22;1.10;;;;;;;;;;1032767;28;20505;-62
2023/12/27 01:25:05;;;;;;;1.10;0.82;;;;;;;;;;1033816;28;20041;-65
2023/12/27 01:25:35;;;;;;;1.85;0.90;;;;;;;;;;1032932;28;20046;-62
2023/12/27 01:26:06;;;;;;;1.20;1.02;;;;;;;;;;1032866;28;20107;-62
2023/12/27 01:26:37;;;;;;;1.67;1.10;;;;;;;;;;1033538;28;20076;-63
2023/12/27 01:27:07;;;;;;;0.93;0.90;;;;;;;;;;1032433;28;20494;-63
2023/12/27 01:27:38;;;;;;;1.10;0.98;;;;;;;;;;1033913;28;20053;-63
2023/12/27 01:28:08;;;;;;;3.10;1.50;;;;;;;;;;1032739;28;20053;-63
2023/12/27 01:28:39;;;;;;;2.08;0.98;;;;;;;;;;1032057;28;20055;-62
2023/12/27 01:29:09;;;;;;;1.75;1.20;;;;;;;;;;1033231;28;20060;-63
2023/12/27 01:29:40;;;;;;;1.30;0.98;;;;;;;;;;1032862;28;20148;-63
2023/12/27 01:30:10;;;;;;;1.85;1.10;;;;;;;;;;1033825;28;20053;-63
2023/12/27 01:30:41;;;;;;;3.53;1.23;;;;;;;;;;1033499;28;20042;-62
2023/12/27 01:31:12;;;;;;;1.55;1.02;;;;;;;;;;1033599;28;20052;-63
2023/12/27 01:31:42;;;;;;;1.35;0.95;;;;;;;;;;1033631;28;20123;-61
2023/12/27 01:32:12;;;;;;;2.67;1.23;;;;;;;;;;1033369;28;20433;-63
2023/12/27 01:32:43;;;;;;;1.05;0.70;;;;;;;;;;1032847;28;20698;-62
2023/12/27 01:33:13;;;;;;;1.85;1.00;;;;;;;;;;1032080;28;20054;-64
2023/12/27 01:33:44;;;;;;;1.50;1.08;;;;;;;;;;1032529;28;20717;-64
2023/12/27 01:34:15;;;;;;;1.15;1.00;;;;;;;;;;1032937;28;20054;-62
2023/12/27 01:34:45;;;;;;;2.03;1.08;;;;;;;;;;1032378;28;20057;-63
2023/12/27 01:35:16;;;;;;;2.95;1.20;;;;;;;;;;1031670;28;20046;-62
2023/12/27 01:35:46;;;;;;;1.10;1.00;;;;;;;;;;1032835;28;20069;-62
2023/12/27 01:36:19;;;;;;;2.88;1.30;;;;;;;;;;1033353;28;20771;-63
2023/12/27 01:36:49;;;;;;;5.15;1.50;;;;;;;;;;1033248;28;20050;-63
2023/12/27 01:37:20;;;;;;;2.28;1.10;;;;;;;;;;1032808;28;20814;-63
2023/12/27 01:37:50;;;;;;;2.60;1.30;;;;;;;;;;1031797;28;20046;-63
2023/12/27 01:38:21;;;;;;;1.85;1.02;;;;;;;;;;1032280;28;20069;-64
2023/12/27 01:38:51;;;;;;;4.95;1.35;;;;;;;;;;1031552;28;20081;-62
2023/12/27 01:39:22;;;;;;;0.75;0.75;;;;;;;;;;1033145;28;20046;-63
2023/12/27 01:39:53;;;;;;;1.27;1.17;;;;;;;;;;1032352;28;20506;-62
2023/12/27 01:40:23;;;;;;;2.38;1.30;;;;;;;;;;1032224;28;20050;-63
2023/12/27 01:40:54;;;;;;;1.20;1.10;;;;;;;;;;1032633;28;20058;-63
2023/12/27 01:41:24;;;;;;;3.13;1.13;;;;;;;;;;1033519;28;20552;-62
2023/12/27 01:41:55;;;;;;;1.17;1.05;;;;;;;;;;1032965;28;20064;-62
2023/12/27 01:42:25;;;;;;;0.73;0.70;;;;;;;;;;1032159;28;20057;-63
2023/12/27 01:42:56;;;;;;;3.45;1.15;;;;;;;;;;1032146;28;20467;-63
2023/12/27 01:43:26;;;;;;;1.52;1.13;;;;;;;;;;1032500;28;20050;-62
2023/12/27 01:43:57;;;;;;;1.17;1.00;;;;;;;;;;1031924;28;20055;-64
2023/12/27 01:44:27;;;;;;;1.45;1.35;;;;;;;;;;1033209;28;20064;-63
2023/12/27 01:44:58;;;;;;;2.53;1.23;;;;;;;;;;1032854;28;20220;-62
2023/12/27 01:45:28;;;;;;;2.45;1.55;;;;;;;;;;1032015;28;20054;-63
2023/12/27 01:45:59;;;;;;;2.13;1.30;;;;;;;;;;1033965;28;20152;-63
2023/12/27 01:46:30;;;;;;;2.20;1.02;;;;;;;;;;1032667;28;20107;-63
2023/12/27 01:47:01;;;;;;;2.28;1.30;;;;;;;;;;1032863;28;20148;-64
2023/12/27 01:47:33;;;;;;;3.03;1.40;;;;;;;;;;1032498;28;20073;-63
2023/12/27 01:48:04;;;;;;;2.38;1.67;;;;;;;;;;1033094;28;20057;-64
2023/12/27 01:48:35;;;;;;;1.30;1.05;;;;;;;;;;1030963;28;20124;-63
2023/12/27 01:49:06;;;;;;;1.10;1.00;;;;;;;;;;1033315;28;20042;-63
2023/12/27 01:49:36;;;;;;;3.22;1.65;;;;;;;;;;1033244;28;20050;-63
2023/12/27 01:50:11;;;;;;;2.67;0.95;;;;;;;;;;1031249;28;20026;-64
2023/12/27 01:50:42;;;;;;;1.40;1.30;;;;;;;;;;1031902;28;20073;-64
2023/12/27 01:51:13;;;;;;;2.05;1.30;;;;;;;;;;1032035;28;20054;-63
2023/12/27 01:51:44;;;;;;;1.17;1.05;;;;;;;;;;1032279;28;20049;-62
2023/12/27 01:52:14;;;;;;;1.33;1.10;;;;;;;;;;1033336;28;20050;-63
2023/12/27 01:52:45;;;;;;;1.25;0.95;;;;;;;;;;1033180;28;20088;-64
2023/12/27 01:53:17;;;;;;;2.67;1.23;;;;;;;;;;1032258;28;20490;-64
2023/12/27 01:53:47;;;;;;;1.00;0.90;;;;;;;;;;1031668;28;20823;-63
2023/12/27 01:54:18;;;;;;;1.70;0.95;;;;;;;;;;1033835;28;20494;-63
2023/12/27 01:54:48;;;;;;;2.45;1.17;;;;;;;;;;1031855;28;20061;-62
2023/12/27 01:55:19;;;;;;;0.85;0.85;;;;;;;;;;1033457;28;20048;-63
2023/12/27 01:55:51;;;;;;;1.48;1.10;;;;;;;;;;1033459;28;20398;-63
2023/12/27 01:56:21;;;;;;;4.10;1.02;;;;;;;;;;1034030;28;20049;-62
2023/12/27 01:56:52;;;;;;;2.25;1.70;;;;;;;;;;1033503;28;20061;-64
2023/12/27 01:57:22;;;;;;;1.52;0.90;;;;;;;;;;1033266;28;20055;-63
2023/12/27 01:57:53;;;;;;;1.15;0.93;;;;;;;;;;1032929;28;20107;-62
2023/12/27 01:58:26;;;;;;;1.88;0.88;;;;;;;;;;1032254;28;20050;-64
2023/12/27 01:58:57;;;;;;;3.30;0.80;;;;;;;;;;1033210;28;20406;-64
2023/12/27 01:59:28;;;;;;;2.20;0.80;;;;;;;;;;1032825;28;20069;-63
2023/12/27 02:00:00;;;;;;;2.05;1.02;;;;;;;;;;1031720;28;20049;-64
2023/12/27 02:00:30;;;;;;;2.05;0.95;;;;;;;;;;1032170;28;20072;-63
2023/12/27 02:01:01;;;;;;;1.02;0.90;;;;;;;;;;1037604;28;20076;-64
2023/12/27 02:01:32;;;;;;;2.97;1.00;;;;;;;;;;1035552;28;20044;-63
2023/12/27 02:02:02;;;;;;;3.80;1.00;;;;;;;;;;1035412;28;20057;-63
2023/12/27 02:02:33;;;;;;;2.60;1.20;;;;;;;;;;1036851;28;20056;-61
2023/12/27 02:03:03;;;;;;;1.88;1.20;;;;;;;;;;1034942;28;20644;-63
2023/12/27 02:03:34;;;;;;;1.25;0.77;;;;;;;;;;1036524;28;20391;-63
2023/12/27 02:04:05;;;;;;;3.92;0.93;;;;;;;;;;1036360;28;20139;-64
2023/12/27 02:04:35;;;;;;;1.08;0.90;;;;;;;;;;1035475;28;20088;-61
2023/12/27 02:05:06;;;;;;;1.27;1.05;;;;;;;;;;1035873;28;20085;-62
2023/12/27 02:05:38;;;;;;;2.30;1.23;;;;;;;;;;1034714;28;20112;-63
2023/12/27 02:06:08;;;;;;;1.52;0.90;;;;;;;;;;1036308;28;20103;-63
2023/12/27 02:06:39;;;;;;;1.00;0.73;;;;;;;;;;1036783;28;20136;-63
2023/12/27 02:07:10;;;;;;;1.60;1.00;;;;;;;;;;1037028;28;20052;-62
2023/12/27 02:07:42;;;;;;;2.00;1.02;;;;;;;;;;1036113;28;20053;-63
2023/12/27 02:08:14;;;;;;;3.17;1.10;;;;;;;;;;1037502;28;20156;-63
2023/12/27 02:08:45;;;;;;;1.30;1.00;;;;;;;;;;1036411;28;20532;-63
2023/12/27 02:09:16;;;;;;;1.42;0.95;;;;;;;;;;1037010;28;20049;-63
2023/12/27 02:09:48;;;;;;;0.98;0.93;;;;;;;;;;1037393;28;20046;-64
2023/12/27 02:10:18;;;;;;;1.40;0.90;;;;;;;;;;1037789;28;20054;-62
2023/12/27 02:10:49;;;;;;;1.27;1.05;;;;;;;;;;1037375;28;20049;-63
2023/12/27 02:11:20;;;;;;;1.30;1.20;;;;;;;;;;1037442;28;20080;-63
2023/12/27 02:11:51;;;;;;;1.00;0.85;;;;;;;;;;1036668;28;20102;-64
2023/12/27 02:12:26;;;;;;;1.20;0.95;;;;;;;;;;1037485;28;20172;-61
2023/12/27 02:13:03;;;;;;;1.65;1.10;;;;;;;;;;1035709;28;20084;-63
2023/12/27 02:13:34;;;;;;;4.53;0.90;;;;;;;;;;1036282;28;20480;-64
2023/12/27 02:14:07;;;;;;;2.67;0.93;;;;;;;;;;1036252;28;20387;-64
2023/12/27 02:14:37;;;;;;;1.50;1.40;;;;;;;;;;1037546;28;20061;-63
2023/12/27 02:15:08;;;;;;;3.50;1.10;;;;;;;;;;1036100;28;20049;-64
2023/12/27 02:15:39;;;;;;;1.10;0.73;;;;;;;;;;1036656;28;20049;-63
2023/12/27 02:16:10;;;;;;;2.60;0.95;;;;;;;;;;1036393;28;20154;-63
2023/12/27 02:16:40;;;;;;;1.85;0.95;;;;;;;;;;1035885;28;20054;-63
2023/12/27 02:17:11;;;;;;;1.23;1.00;;;;;;;;;;1037088;28;20045;-64
2023/12/27 02:17:43;;;;;;;1.70;0.90;;;;;;;;;;1035812;28;20582;-63
2023/12/27 02:18:14;;;;;;;1.60;0.80;;;;;;;;;;1037360;28;20049;-63
2023/12/27 02:18:45;;;;;;;1.15;0.90;;;;;;;;;;1036921;28;20052;-63
2023/12/27 02:19:25;;;;;;;1.30;1.20;;;;;;;;;;1038068;28;20055;-63
2023/12/27 02:19:57;;;;;;;2.28;1.25;;;;;;;;;;1036735;28;20057;-63
2023/12/27 02:20:28;;;;;;;2.03;1.10;;;;;;;;;;1037223;28;20041;-63
2023/12/27 02:20:59;;;;;;;3.22;1.10;;;;;;;;;;1036852;28;20049;-62
2023/12/27 02:21:31;;;;;;;1.70;0.88;;;;;;;;;;1037724;28;20057;-63
2023/12/27 02:22:03;;;;;;;1.20;1.00;;;;;;;;;;1036184;28;20128;-63
2023/12/27 02:22:35;;;;;;;1.08;1.02;;;;;;;;;;1035601;28;20057;-63
2023/12/27 02:23:10;;;;;;;2.22;1.25;;;;;;;;;;1036995;28;20082;-64
2023/12/27 02:23:42;;;;;;;0.75;0.75;;;;;;;;;;1036361;28;20472;-63
2023/12/27 02:24:15;;;;;;;1.73;0.90;;;;;;;;;;1036890;28;20056;-63
2023/12/27 02:24:50;;;;;;;2.67;1.00;;;;;;;;;;1035964;28;20053;-63
2023/12/27 02:25:21;;;;;;;3.05;0.93;;;;;;;;;;1037068;28;20104;-62
2023/12/27 02:25:52;;;;;;;2.50;0.88;;;;;;;;;;1035861;28;20111;-64
2023/12/27 02:26:23;;;;;;;1.35;0.88;;;;;;;;;;1036583;28;20187;-64
2023/12/27 02:26:53;;;;;;;3.33;1.30;;;;;;;;;;1036349;28;20103;-62
2023/12/27 02:27:24;;;;;;;1.30;0.95;;;;;;;;;;1037919;28;20099;-62
2023/12/27 02:27:55;;;;;;;1.38;0.90;;;;;;;;;;1034731;28;20055;-63
2023/12/27 02:28:25;;;;;;;2.40;1.42;;;;;;;;;;1036276;28;20156;-63
2023/12/27 02:28:58;;;;;;;1.42;0.70;;;;;;;;;;1036362;28;20053;-64
2023/12/27 02:29:28;;;;;;;4.47;1.35;;;;;;;;;;1037169;28;20589;-63
2023/12/27 02:29:59;;;;;;;1.05;1.00;;;;;;;;;;1037403;28;22232;-63
2023/12/27 02:30:31;;;;;;;0.60;0.60;;;;;;;;;;1036676;28;20045;-63
2023/12/27 02:31:02;;;;;;;2.70;0.80;;;;;;;;;;1036745;28;20038;-64
2023/12/27 02:31:32;;;;;;;0.93;0.80;;;;;;;;;;1035530;28;20053;-65
2023/12/27 02:32:03;;;;;;;1.98;1.08;;;;;;;;;;1036763;28;20053;-62
2023/12/27 02:32:36;;;;;;;1.20;1.00;;;;;;;;;;1036431;28;20452;-62
2023/12/27 02:33:06;;;;;;;1.65;1.35;;;;;;;;;;1038133;28;20041;-64
2023/12/27 02:33:41;;;;;;;0.95;0.70;;;;;;;;;;1035493;28;20053;-62
2023/12/27 02:34:11;;;;;;;5.63;0.90;;;;;;;;;;1037001;28;20046;-64
2023/12/27 02:34:42;;;;;;;1.77;1.00;;;;;;;;;;1036722;28;20147;-63
2023/12/27 02:35:12;;;;;;;2.63;0.98;;;;;;;;;;1037522;28;20075;-63
2023/12/27 02:35:43;;;;;;;0.80;0.80;;;;;;;;;;1035554;28;20091;-62
2023/12/27 02:36:14;;;;;;;0.85;0.70;;;;;;;;;;1037350;28;20179;-63
2023/12/27 02:36:44;;;;;;;3.92;1.27;;;;;;;;;;1037050;28;20056;-64
2023/12/27 02:37:15;;;;;;;1.63;1.25;;;;;;;;;;1036224;28;20054;-61
2023/12/27 02:37:45;;;;;;;1.38;1.02;;;;;;;;;;1035770;28;20068;-63
2023/12/27 02:38:16;;;;;;;1.20;1.10;;;;;;;;;;1036353;28;20056;-62
2023/12/27 02:38:46;;;;;;;1.95;1.10;;;;;;;;;;1037059;28;20132;-63
2023/12/27 02:39:17;;;;;;;0.88;0.80;;;;;;;;;;1036033;28;20060;-63
2023/12/27 02:39:47;;;;;;;1.63;1.00;;;;;;;;;;1036570;28;20126;-61
2023/12/27 02:40:18;;;;;;;1.15;0.90;;;;;;;;;;1038316;28;20049;-64
2023/12/27 02:40:48;;;;;;;4.85;1.00;;;;;;;;;;1034749;28;20049;-63
2023/12/27 02:41:19;;;;;;;1.25;0.98;;;;;;;;;;1037155;28;20049;-62
2023/12/27 02:41:49;;;;;;;1.55;0.80;;;;;;;;;;1036122;28;21745;-64
2023/12/27 02:42:20;;;;;;;2.15;1.15;;;;;;;;;;1037584;28;20103;-62
2023/12/27 02:42:50;;;;;;;1.13;1.00;;;;;;;;;;1035126;28;20048;-63
2023/12/27 02:43:21;;;;;;;1.02;0.95;;;;;;;;;;1037262;28;20132;-62
2023/12/27 02:43:51;;;;;;;2.88;1.20;;;;;;;;;;1036645;28;20066;-63
2023/12/27 02:44:25;;;;;;;1.23;1.10;;;;;;;;;;1037928;28;20053;-63
2023/12/27 02:44:56;;;;;;;2.05;1.25;;;;;;;;;;1037604;28;21196;-62
2023/12/27 02:45:26;;;;;;;3.40;1.00;;;;;;;;;;1033521;28;20469;-63
2023/12/27 02:45:57;;;;;;;1.35;1.23;;;;;;;;;;1037462;28;20045;-63
2023/12/27 02:46:31;;;;;;;2.08;1.00;;;;;;;;;;1034934;28;20050;-63
2023/12/27 02:47:02;;;;;;;1.25;0.98;;;;;;;;;;1037593;28;20485;-62
2023/12/27 02:47:33;;;;;;;2.05;1.33;;;;;;;;;;1035927;28;20049;-62
2023/12/27 02:48:04;;;;;;;0.90;0.90;;;;;;;;;;1034096;28;20064;-65
2023/12/27 02:48:35;;;;;;;2.00;1.10;;;;;;;;;;1036021;28;20068;-61
2023/12/27 02:49:05;;;;;;;1.83;1.13;;;;;;;;;;1037331;28;20519;-62
2023/12/27 02:49:36;;;;;;;0.90;0.90;;;;;;;;;;1036582;28;20458;-62
2023/12/27 02:50:06;;;;;;;4.00;1.02;;;;;;;;;;1036401;28;20041;-64
2023/12/27 02:50:37;;;;;;;3.63;1.20;;;;;;;;;;1037066;28;20106;-62
2023/12/27 02:51:07;;;;;;;1.85;1.02;;;;;;;;;;1037601;28;20106;-63
2023/12/27 02:51:38;;;;;;;1.73;1.00;;;;;;;;;;1036415;28;20065;-64
2023/12/27 02:52:08;;;;;;;1.75;0.77;;;;;;;;;;1038172;28;20106;-63
2023/12/27 02:52:39;;;;;;;1.20;1.10;;;;;;;;;;1036947;28;20104;-63
2023/12/27 02:53:11;;;;;;;2.25;1.00;;;;;;;;;;1037538;28;20053;-63
2023/12/27 02:53:41;;;;;;;1.67;1.13;;;;;;;;;;1035160;28;20077;-63
2023/12/27 02:54:12;;;;;;;1.13;0.98;;;;;;;;;;1036964;28;20045;-63
2023/12/27 02:54:42;;;;;;;2.75;1.10;;;;;;;;;;1038109;28;20045;-62
2023/12/27 02:55:13;;;;;;;1.73;1.50;;;;;;;;;;1037005;28;20084;-62
2023/12/27 02:55:43;;;;;;;1.65;1.08;;;;;;;;;;1038116;28;20050;-63
2023/12/27 02:56:14;;;;;;;2.60;1.25;;;;;;;;;;1037504;28;20050;-63
2023/12/27 02:56:44;;;;;;;3.25;1.05;;;;;;;;;;1037225;28;20104;-63
2023/12/27 02:57:15;;;;;;;2.70;0.95;;;;;;;;;;1037193;28;20492;-62
2023/12/27 02:57:46;;;;;;;3.47;1.40;;;;;;;;;;1034205;28;20049;-64
2023/12/27 02:58:16;;;;;;;1.05;1.02;;;;;;;;;;1037283;28;20468;-65
2023/12/27 02:58:47;;;;;;;2.15;1.30;;;;;;;;;;1035041;28;20060;-63
2023/12/27 02:59:17;;;;;;;1.77;1.00;;;;;;;;;;1037141;28;20045;-63
2023/12/27 02:59:47;;;;;;;2.20;1.20;;;;;;;;;;1035830;28;20060;-62
2023/12/27 03:00:18;;;;;;;7.82;1.48;;;;;;;;;;1037510;28;20048;-63
2023/12/27 03:00:49;;;;;;;2.63;1.40;;;;;;;;;;1035266;28;20049;-63
2023/12/27 03:01:20;;;;;;;2.33;1.25;;;;;;;;;;1037634;28;20046;-63
2023/12/27 03:01:50;;;;;;;1.08;0.90;;;;;;;;;;1037358;28;20057;-63
2023/12/27 03:02:21;;;;;;;1.88;1.40;;;;;;;;;;1037800;28;20041;-64
2023/12/27 03:02:51;;;;;;;1.65;1.08;;;;;;;;;;1037106;28;20789;-62
2023/12/27 03:03:22;;;;;;;1.20;1.10;;;;;;;;;;1036711;28;20806;-63
2023/12/27 03:03:52;;;;;;;1.10;0.95;;;;;;;;;;1037393;28;20064;-63
2023/12/27 03:04:23;;;;;;;3.33;1.20;;;;;;;;;;1037086;28;20057;-63
2023/12/27 03:04:54;;;;;;;1.17;0.82;;;;;;;;;;1036557;28;20061;-62
2023/12/27 03:05:25;;;;;;;1.75;1.65;;;;;;;;;;1038371;28;20049;-63
2023/12/27 03:05:55;;;;;;;3.85;1.60;;;;;;;;;;1038343;28;20049;-63